Time;durP1;ratioP1;P1;durP2;ratioP2;P2;SDS_P1;SDS_P2;PMS_P1;PMS_P2;Temp;Humidity;BMP_temperature;BMP_pressure;BME280_temperature;BME280_humidity;BME280_pressure;Samples;Min_cycle;Max_cycle;Signal;HPM_P1;HPM_P2
2022/08/31 00:04:14;;;;;;;12.57;6.25;;;;;;;26.92;62.22;101071.50;5054426;28;20031;-84
2022/08/31 00:06:40;;;;;;;13.38;6.15;;;;;;;27.05;62.55;101093.72;5054535;28;20028;-84
2022/08/31 00:09:06;;;;;;;13.02;6.30;;;;;;;27.04;62.57;101100.00;5053658;28;20017;-83
2022/08/31 00:11:34;;;;;;;12.13;5.72;;;;;;;26.87;62.23;101068.88;5053658;28;20409;-84
2022/08/31 00:14:06;;;;;;;11.73;6.13;;;;;;;27.02;62.62;101089.28;5034701;28;20017;-84
2022/08/31 00:16:33;;;;;;;10.18;6.20;;;;;;;27.02;62.19;101087.47;5017752;28;20033;-83
2022/08/31 00:18:59;;;;;;;11.93;5.75;;;;;;;26.93;62.33;101070.63;5035039;28;20032;-86
2022/08/31 00:21:25;;;;;;;10.20;6.32;;;;;;;27.01;62.54;101087.53;5019365;28;20104;-85
2022/08/31 00:23:52;;;;;;;12.93;5.93;;;;;;;26.92;62.56;101072.38;5053668;28;20029;-85
2022/08/31 00:26:18;;;;;;;10.43;5.85;;;;;;;26.75;62.34;101039.50;5035810;28;20044;-85
2022/08/31 00:28:44;;;;;;;13.23;6.25;;;;;;;26.81;62.28;101052.84;5052163;28;20056;-83
2022/08/31 00:31:10;;;;;;;10.20;5.60;;;;;;;26.91;62.39;101084.03;5053331;28;20028;-85
2022/08/31 00:33:36;;;;;;;14.73;6.47;;;;;;;26.99;62.37;101097.38;5071306;28;20127;-85
2022/08/31 00:36:04;;;;;;;13.73;6.20;;;;;;;26.90;62.64;101092.06;5063678;28;20028;-83
2022/08/31 00:38:30;;;;;;;10.45;5.97;;;;;;;26.72;62.21;101059.16;5051647;28;20094;-84
2022/08/31 00:40:55;;;;;;;12.02;6.40;;;;;;;26.87;62.43;101087.63;5062683;28;20521;-83
2022/08/31 00:43:38;;;;;;;11.15;6.00;;;;;;;27.01;62.07;101112.53;5053630;28;20017;-84
2022/08/31 00:46:04;;;;;;;15.05;6.28;;;;;;;26.61;62.05;101042.28;5073052;28;20028;-86
2022/08/31 00:48:30;;;;;;;12.10;5.93;;;;;;;26.90;62.30;101095.66;5072456;28;20426;-84
2022/08/31 00:50:56;;;;;;;12.68;6.38;;;;;;;27.01;62.43;101111.66;5054942;28;20096;-83
2022/08/31 00:53:22;;;;;;;9.57;5.70;;;;;;;26.74;62.22;101059.16;5037843;28;20032;-83
2022/08/31 00:55:48;;;;;;;11.85;6.38;;;;;;;26.70;62.36;101050.25;5052514;28;20386;-84
2022/08/31 00:58:13;;;;;;;11.18;5.95;;;;;;;26.71;62.36;101041.31;5054382;28;20032;-83
2022/08/31 01:00:41;;;;;;;14.95;6.00;;;;;;;26.72;62.33;101045.75;5072034;28;20051;-83
2022/08/31 01:03:08;;;;;;;10.35;6.13;;;;;;;26.99;62.06;101098.25;5054644;28;20510;-84
2022/08/31 01:05:34;;;;;;;14.75;6.20;;;;;;;26.70;62.33;101044.00;5032773;28;20029;-86
2022/08/31 01:08:00;;;;;;;11.25;5.97;;;;;;;26.97;62.16;101104.53;5056853;28;20105;-86
2022/08/31 01:10:30;;;;;;;14.73;5.97;;;;;;;26.97;62.12;101097.38;5071789;28;20086;-84
2022/08/31 01:12:56;;;;;;;11.35;5.50;;;;;;;26.96;62.29;101094.69;5051683;28;20028;-83
2022/08/31 01:15:23;;;;;;;12.52;5.75;;;;;;;26.90;62.43;101082.25;5071827;28;20165;-84
2022/08/31 01:17:51;;;;;;;9.88;5.60;;;;;;;26.83;62.24;101075.16;5054526;28;20401;-84
2022/08/31 01:20:45;;;;;;;10.73;5.70;;;;;;;26.96;62.44;101100.06;5057720;28;20035;-85
2022/08/31 01:23:38;;;;;;;12.05;5.72;;;;;;;26.89;62.32;101101.03;5076409;28;20103;-85
2022/08/31 01:26:05;;;;;;;13.70;5.82;;;;;;;26.94;62.05;101109.91;5068134;28;20032;-85
2022/08/31 01:28:30;;;;;;;11.23;5.75;;;;;;;26.79;62.41;101087.69;5057383;28;20047;-87
2022/08/31 01:31:05;;;;;;;15.85;6.10;;;;;;;26.94;62.45;101116.13;5059068;28;20125;-86
2022/08/31 01:33:33;;;;;;;11.70;5.53;;;;;;;26.93;62.25;101117.06;5077417;28;20053;-85
2022/08/31 01:35:59;;;;;;;13.25;6.30;;;;;;;26.91;62.39;101108.13;5059954;28;20136;-86
2022/08/31 01:38:28;;;;;;;8.63;5.97;;;;;;;26.82;62.15;101097.50;5060506;28;20647;-85
2022/08/31 01:40:57;;;;;;;12.75;6.15;;;;;;;26.91;62.40;101116.19;5060503;28;20397;-86
2022/08/31 01:43:24;;;;;;;17.23;6.30;;;;;;;26.93;62.51;101125.09;5053682;28;20021;-83
2022/08/31 01:45:50;;;;;;;15.70;5.97;;;;;;;26.95;62.10;101125.09;5035934;28;20025;-86
2022/08/31 01:48:16;;;;;;;9.93;5.93;;;;;;;26.91;62.28;101123.34;5068956;28;20028;-85
2022/08/31 01:50:42;;;;;;;9.57;5.30;;;;;;;26.87;62.65;101114.41;5073483;28;20042;-84
2022/08/31 01:53:08;;;;;;;12.05;5.68;;;;;;;26.70;62.47;101093.13;5064154;28;20076;-85
2022/08/31 01:55:33;;;;;;;10.57;5.47;;;;;;;26.81;62.81;101123.38;5082047;28;20028;-83
2022/08/31 01:58:00;;;;;;;13.02;6.18;;;;;;;26.73;62.70;101102.91;5063331;28;20021;-84
2022/08/31 02:00:27;;;;;;;15.13;6.05;;;;;;;26.91;62.43;101137.63;5082228;28;20032;-85
2022/08/31 02:02:54;;;;;;;11.23;5.75;;;;;;;26.76;62.55;101109.16;5077880;28;20023;-83
2022/08/31 02:05:20;;;;;;;9.68;5.55;;;;;;;26.70;62.38;101095.78;5061199;28;20020;-84
2022/08/31 02:07:46;;;;;;;11.38;5.53;;;;;;;26.89;62.76;101130.50;5080081;28;20032;-86
2022/08/31 02:10:11;;;;;;;;;;;;;;;26.92;62.52;101127.78;5066962;28;20237;-83
2022/08/31 02:12:37;;;;;;;12.57;6.10;;;;;;;26.88;62.72;101120.66;5080584;28;19908;-84
2022/08/31 02:15:03;;;;;;;10.07;5.72;;;;;;;26.80;62.92;101102.88;5081100;28;20066;-85
2022/08/31 02:17:29;;;;;;;11.65;5.85;;;;;;;26.85;62.72;101104.63;5084504;28;20021;-85
2022/08/31 02:19:54;;;;;;;15.60;6.03;;;;;;;26.81;62.82;101088.56;5068528;28;20035;-84
2022/08/31 02:22:20;;;;;;;19.83;5.97;;;;;;;26.77;62.65;101078.75;5067462;28;20013;-83
2022/08/31 02:24:46;;;;;;;13.00;5.55;;;;;;;26.74;62.94;101081.47;5080057;28;20115;-85
2022/08/31 02:27:12;;;;;;;13.65;6.05;;;;;;;26.81;62.83;101085.88;5084658;28;20028;-84
2022/08/31 02:29:38;;;;;;;12.45;6.15;;;;;;;26.76;62.72;101077.00;5078016;28;20029;-83
2022/08/31 02:32:04;;;;;;;12.10;5.43;;;;;;;26.80;62.86;101088.59;5075969;28;20489;-84
2022/08/31 02:34:39;;;;;;;12.48;5.80;;;;;;;26.85;62.83;101088.53;5041843;28;20413;-85
2022/08/31 02:37:05;;;;;;;8.18;5.18;;;;;;;26.67;62.59;101061.00;5079489;28;20017;-86
2022/08/31 02:39:31;;;;;;;10.82;5.90;;;;;;;26.85;62.78;101094.78;5079500;28;20126;-87
2022/08/31 02:41:58;;;;;;;12.57;6.05;;;;;;;26.83;62.80;101090.34;5084183;28;20413;-85
2022/08/31 02:44:24;;;;;;;12.07;5.70;;;;;;;26.74;62.65;101084.16;5063760;28;20154;-85
2022/08/31 02:46:50;;;;;;;11.73;6.03;;;;;;;26.74;62.73;101100.22;5066686;28;20062;-84
2022/08/31 02:49:16;;;;;;;9.23;5.43;;;;;;;26.49;62.76;101056.63;5086213;28;20096;-85
2022/08/31 02:51:42;;;;;;;14.40;6.05;;;;;;;26.56;62.52;101076.22;5083670;28;20108;-86
2022/08/31 02:54:09;;;;;;;10.40;6.28;;;;;;;26.73;62.51;101098.47;5047948;28;20047;-83
2022/08/31 02:56:34;;;;;;;9.77;5.55;;;;;;;26.59;62.56;101071.75;5081778;28;20054;-86
2022/08/31 02:59:02;;;;;;;8.15;5.82;;;;;;;26.68;62.38;101081.53;5071940;28;20028;-84
2022/08/31 03:01:28;;;;;;;12.82;5.90;;;;;;;26.72;62.69;101093.13;5083450;28;20408;-85
2022/08/31 03:03:55;;;;;;;9.30;5.80;;;;;;;26.78;62.83;101106.47;5064994;28;20072;-86
2022/08/31 03:06:21;;;;;;;10.55;5.90;;;;;;;26.67;62.73;101086.88;5073095;28;20028;-85
2022/08/31 03:08:47;;;;;;;11.70;6.18;;;;;;;26.75;63.07;101104.69;5058919;28;20123;-85
2022/08/31 03:11:15;;;;;;;12.23;6.22;;;;;;;26.39;63.02;101038.84;5077219;28;20027;-84
2022/08/31 03:13:42;;;;;;;13.52;6.28;;;;;;;26.59;63.19;101053.00;5085516;28;20031;-84
2022/08/31 03:16:11;;;;;;;16.10;6.45;;;;;;;26.77;63.09;101077.88;5060426;28;20028;-84
2022/08/31 03:18:37;;;;;;;16.38;6.32;;;;;;;26.69;63.52;101067.25;5068157;28;20517;-83
2022/08/31 03:21:02;;;;;;;18.08;6.40;;;;;;;26.62;64.11;101056.56;5038869;28;20063;-84
2022/08/31 03:23:28;;;;;;;11.80;6.22;;;;;;;26.65;63.93;101045.81;5072990;28;20040;-84
2022/08/31 03:25:54;;;;;;;15.32;7.55;;;;;;;26.58;64.33;101018.19;5054840;28;20024;-83
2022/08/31 03:28:20;;;;;;;17.83;7.10;;;;;;;26.55;64.73;101010.16;5055799;28;20412;-84
2022/08/31 03:30:45;;;;;;;16.58;7.18;;;;;;;26.71;65.47;101029.69;5055280;28;20044;-83
2022/08/31 03:33:11;;;;;;;;;;;;;;;26.74;65.38;101032.38;5073832;28;20581;-83
2022/08/31 03:35:37;;;;;;;14.25;6.45;;;;;;;26.72;65.90;101027.00;5049211;28;19923;-82
2022/08/31 03:38:04;;;;;;;15.07;6.80;;;;;;;26.51;66.07;101009.28;5055395;28;20099;-83
2022/08/31 03:40:30;;;;;;;20.67;7.88;;;;;;;26.50;66.72;101001.25;5073441;28;20024;-82
2022/08/31 03:42:59;;;;;;;15.00;7.18;;;;;;;26.66;66.32;101016.34;5060323;28;20035;-83
2022/08/31 03:45:26;;;;;;;16.55;7.03;;;;;;;26.66;66.50;101007.44;5043477;28;20036;-83
2022/08/31 03:47:52;;;;;;;16.15;7.35;;;;;;;26.64;66.70;101017.28;5058671;28;20025;-83
2022/08/31 03:50:18;;;;;;;16.75;7.00;;;;;;;26.61;66.43;101002.13;5056888;28;20025;-83
2022/08/31 03:52:43;;;;;;;;;;;;;;;26.74;66.02;101027.88;5074158;28;20016;-85
2022/08/31 03:55:10;;;;;;;18.73;6.75;;;;;;;26.63;66.74;101021.75;5056503;28;19912;-82
2022/08/31 03:57:36;;;;;;;16.23;7.20;;;;;;;26.56;66.33;101006.56;5072760;28;20034;-83
2022/08/31 04:00:04;;;;;;;13.90;6.97;;;;;;;26.75;66.31;101048.41;5069751;28;20489;-82
2022/08/31 04:02:30;;;;;;;20.02;7.60;;;;;;;26.58;65.60;101034.25;5070518;28;20384;-83
2022/08/31 04:04:56;;;;;;;15.05;7.57;;;;;;;26.76;65.24;101065.41;5075174;28;20027;-84
2022/08/31 04:07:22;;;;;;;16.92;7.55;;;;;;;26.78;66.05;101067.16;5060809;28;20485;-82
2022/08/31 04:09:48;;;;;;;16.63;7.20;;;;;;;26.60;66.00;101049.41;5074219;28;20017;-85
2022/08/31 04:12:14;;;;;;;13.35;7.13;;;;;;;26.74;65.41;101069.88;5055538;28;20095;-84
2022/08/31 04:14:40;;;;;;;15.55;7.18;;;;;;;26.58;65.21;101036.94;5066405;28;20028;-84
2022/08/31 04:17:09;;;;;;;17.80;7.70;;;;;;;26.57;65.36;101027.16;5072269;28;20020;-84
2022/08/31 04:19:35;;;;;;;16.80;7.43;;;;;;;26.54;65.64;101032.47;5072836;28;20031;-84
2022/08/31 04:22:00;;;;;;;17.20;7.15;;;;;;;26.71;65.83;101067.22;5071893;28;20024;-84
2022/08/31 04:24:26;;;;;;;;;;;;;;;26.76;65.85;101068.97;5052189;28;20029;-83
2022/08/31 04:26:52;;;;;;;17.88;7.43;;;;;;;26.62;65.97;101046.75;5040024;28;19916;-83
2022/08/31 04:29:17;;;;;;;16.05;7.22;;;;;;;26.68;65.23;101068.13;5071965;28;20055;-83
2022/08/31 04:31:43;;;;;;;;;;;;;;;26.75;65.46;101095.75;5067674;28;20054;-83
2022/08/31 04:34:09;;;;;;;13.93;7.45;;;;;;;26.69;65.22;101107.44;5070656;28;19912;-84
2022/08/31 04:36:34;;;;;;;17.55;7.68;;;;;;;26.67;65.25;101094.91;5051754;28;20037;-83
2022/08/31 04:39:02;;;;;;;14.40;6.97;;;;;;;26.74;65.56;101102.03;5054058;28;20024;-83
2022/08/31 04:41:30;;;;;;;18.50;7.03;;;;;;;26.66;65.76;101093.16;5037591;28;20031;-83
2022/08/31 04:43:58;;;;;;;19.42;7.82;;;;;;;26.69;66.05;101101.16;5069427;28;20111;-83
2022/08/31 04:46:24;;;;;;;16.90;7.63;;;;;;;26.63;65.64;101094.06;5036781;28;20029;-84
2022/08/31 04:48:50;;;;;;;19.13;7.45;;;;;;;26.73;65.47;101101.16;5064916;28;20036;-84
2022/08/31 04:51:24;;;;;;;21.13;8.00;;;;;;;26.70;65.34;101106.50;5051588;28;20020;-85
2022/08/31 04:53:51;;;;;;;16.75;7.10;;;;;;;26.72;65.10;101104.72;5040970;28;20058;-86
2022/08/31 04:56:23;;;;;;;15.10;7.57;;;;;;;26.75;65.44;101112.72;5053648;28;20078;-85
2022/08/31 04:58:51;;;;;;;14.73;7.22;;;;;;;26.65;65.52;101091.34;5047002;28;20497;-86
2022/08/31 05:01:20;;;;;;;15.35;7.50;;;;;;;26.74;65.14;101115.44;5067357;28;20032;-85
2022/08/31 05:03:51;;;;;;;18.52;7.68;;;;;;;26.65;65.62;101089.59;5051766;28;20024;-86
2022/08/31 05:06:29;;;;;;;14.90;6.97;;;;;;;26.58;65.43;101080.69;5046333;28;20032;-85
2022/08/31 05:09:05;;;;;;;15.82;7.53;;;;;;;26.51;65.24;101073.56;5049204;28;20037;-86
2022/08/31 05:11:30;;;;;;;20.25;7.18;;;;;;;26.48;65.02;101084.31;5035267;28;20086;-85
2022/08/31 05:13:57;;;;;;;16.50;7.35;;;;;;;26.71;65.27;101120.78;5044943;28;20025;-85
2022/08/31 05:16:23;;;;;;;20.95;7.70;;;;;;;26.54;65.23;101091.41;5048644;28;20124;-84
2022/08/31 05:18:50;;;;;;;13.05;6.13;;;;;;;26.48;64.62;101086.09;5057800;28;20563;-85
2022/08/31 05:21:26;;;;;;;19.88;7.70;;;;;;;26.24;64.89;101036.28;5063191;28;20028;-85
2022/08/31 05:23:56;;;;;;;17.67;7.47;;;;;;;26.35;64.85;101055.81;5047408;28;20483;-84
2022/08/31 05:26:26;;;;;;;17.75;7.80;;;;;;;26.55;64.80;101093.19;5045549;28;20543;-85
2022/08/31 05:28:56;;;;;;;14.38;8.00;;;;;;;26.23;64.82;101027.34;5046157;28;20036;-84
2022/08/31 05:31:25;;;;;;;18.13;8.15;;;;;;;26.63;65.31;101101.19;5070971;28;20024;-87
2022/08/31 05:33:51;;;;;;;17.63;8.00;;;;;;;26.37;64.62;101046.00;5044229;28;20528;-85
2022/08/31 05:36:17;;;;;;;16.58;7.68;;;;;;;26.58;64.92;101077.13;5036500;28;20028;-86
2022/08/31 05:38:43;;;;;;;16.05;7.50;;;;;;;26.22;64.86;101004.16;5027618;28;20413;-84
2022/08/31 05:41:09;;;;;;;15.27;7.93;;;;;;;26.67;65.13;101095.84;5067714;28;20150;-85
2022/08/31 05:43:36;;;;;;;14.98;8.23;;;;;;;26.36;65.29;101045.09;5047568;28;20031;-85
2022/08/31 05:46:10;;;;;;;17.85;8.07;;;;;;;26.71;65.07;101105.63;5058903;28;20028;-86
2022/08/31 05:48:36;;;;;;;15.32;8.00;;;;;;;26.71;65.37;101099.34;5052325;28;20020;-86
2022/08/31 05:51:05;;;;;;;14.98;7.68;;;;;;;26.68;65.59;101105.63;5051613;28;20504;-86
2022/08/31 05:53:38;;;;;;;17.50;8.10;;;;;;;26.55;66.10;101086.03;5053270;28;20028;-92
2022/08/31 05:56:26;;;;;;;34.47;10.30;;;;;;;26.64;68.39;101093.16;5034396;28;20032;-95
2022/08/31 05:58:58;;;;;;;30.77;11.27;;;;;;;26.53;68.91;101089.63;5034396;28;20028;-93
2022/08/31 06:01:47;;;;;;;31.50;11.43;;;;;;;26.40;69.60;101078.13;5035022;28;20482;-94
2022/08/31 06:04:16;;;;;;;28.65;11.20;;;;;;;26.33;70.00;101088.00;5026855;28;20484;-90
2022/08/31 06:06:42;;;;;;;31.20;12.40;;;;;;;26.41;69.54;101087.91;5046522;28;20432;-87
2022/08/31 06:09:07;;;;;;;;;;;;;;;26.54;67.93;101094.09;5051007;28;20025;-86
2022/08/31 06:11:34;;;;;;;19.73;10.02;;;;;;;26.04;67.52;101004.28;5047731;28;19920;-86
2022/08/31 06:14:02;;;;;;;22.88;9.15;;;;;;;26.16;67.63;101044.34;5051930;28;20028;-86
2022/08/31 06:16:29;;;;;;;19.02;9.27;;;;;;;26.57;67.31;101105.72;5066311;28;20087;-90
2022/08/31 06:18:57;;;;;;;23.05;9.70;;;;;;;26.42;67.85;101084.34;5050729;28;20052;-88
2022/08/31 06:21:32;;;;;;;21.25;9.75;;;;;;;26.53;67.46;101101.22;5032817;28;20039;-86
2022/08/31 06:24:02;;;;;;;19.83;9.48;;;;;;;26.57;67.02;101112.88;5034402;28;20097;-85
2022/08/31 06:26:31;;;;;;;17.40;9.20;;;;;;;26.49;67.31;101112.00;5035521;28;20028;-86
2022/08/31 06:28:59;;;;;;;20.85;9.32;;;;;;;26.51;67.18;101105.72;5027890;28;20016;-85
2022/08/31 06:31:29;;;;;;;21.40;9.05;;;;;;;26.53;67.27;101103.03;5047759;28;20619;-87
2022/08/31 06:33:56;;;;;;;24.67;9.93;;;;;;;26.57;67.21;101111.06;5058155;28;20044;-87
2022/08/31 06:36:24;;;;;;;22.55;10.23;;;;;;;26.20;67.25;101054.13;5070222;28;20032;-89
2022/08/31 06:38:51;;;;;;;28.33;10.32;;;;;;;26.20;67.00;101049.69;5051079;28;20024;-88
2022/08/31 06:41:41;;;;;;;28.98;10.00;;;;;;;26.23;66.90;101058.59;5067131;28;20096;-88
2022/08/31 06:44:12;;;;;;;23.00;9.52;;;;;;;26.38;67.28;101096.88;5056182;28;20099;-88
2022/08/31 06:46:40;;;;;;;23.33;9.60;;;;;;;26.38;66.87;101102.22;5072750;28;20020;-89
2022/08/31 06:49:06;;;;;;;18.92;9.05;;;;;;;26.40;66.88;101110.25;5073006;28;20024;-89
2022/08/31 06:51:35;;;;;;;21.27;9.32;;;;;;;26.39;66.29;101117.41;5040630;28;20024;-90
2022/08/31 06:54:06;;;;;;;19.42;8.98;;;;;;;26.02;64.93;101068.53;5051053;28;20020;-88
2022/08/31 06:56:34;;;;;;;20.20;8.98;;;;;;;26.10;64.13;101088.09;5056313;28;20033;-87
2022/08/31 06:59:04;;;;;;;26.52;8.90;;;;;;;26.37;63.82;101115.63;5038591;28;20138;-86
2022/08/31 07:01:31;;;;;;;25.42;9.35;;;;;;;25.97;64.12;101049.81;5051238;28;20112;-87
2022/08/31 07:03:58;;;;;;;19.33;9.07;;;;;;;26.28;63.39;101110.31;5045597;28;20036;-88
2022/08/31 07:06:29;;;;;;;19.15;8.82;;;;;;;26.05;64.05;101067.59;5073553;28;20020;-85
2022/08/31 07:08:59;;;;;;;22.92;8.88;;;;;;;26.28;64.19;101081.75;5025794;28;20035;-85
2022/08/31 07:11:46;;;;;;;24.42;8.73;;;;;;;26.30;64.56;101073.72;5063234;28;20021;-84
2022/08/31 07:14:14;;;;;;;23.17;9.30;;;;;;;26.23;64.76;101062.16;5066563;28;20406;-84
2022/08/31 07:16:41;;;;;;;20.48;8.77;;;;;;;26.05;64.93;101049.75;5072428;28;20556;-84
2022/08/31 07:19:07;;;;;;;23.00;9.30;;;;;;;26.46;64.88;101109.31;5055208;28;20032;-84
2022/08/31 07:21:38;;;;;;;25.08;9.45;;;;;;;26.20;64.53;101057.72;5055943;28;20500;-84
2022/08/31 07:24:08;;;;;;;21.55;9.15;;;;;;;26.13;64.88;101055.06;5062473;28;20486;-85
2022/08/31 07:26:43;;;;;;;28.92;10.02;;;;;;;26.27;64.44;101068.38;5057189;28;20028;-84
2022/08/31 07:29:13;;;;;;;23.17;9.05;;;;;;;26.38;64.29;101079.91;5055872;28;20482;-85
2022/08/31 07:31:46;;;;;;;25.23;9.35;;;;;;;26.44;64.41;101095.94;5056080;28;20035;-84
2022/08/31 07:34:18;;;;;;;22.50;8.38;;;;;;;26.27;64.58;101065.69;5049884;28;20489;-84
2022/08/31 07:42:16;;;;;;;28.98;8.75;;;;;;;25.99;64.85;101042.66;5058477;28;20089;-85
2022/08/31 07:44:47;;;;;;;18.88;8.50;;;;;;;26.29;64.61;101096.94;5045300;28;20032;-84
2022/08/31 07:47:13;;;;;;;24.35;9.10;;;;;;;26.37;64.68;101092.44;5054925;28;20028;-83
2022/08/31 07:49:43;;;;;;;;;;;;;;;26.54;64.09;101103.03;5059199;28;20024;-87
2022/08/31 07:52:10;;;;;;;24.48;8.43;;;;;;;26.49;63.61;101109.31;5051146;28;19959;-86
2022/08/31 07:54:36;;;;;;;26.45;9.25;;;;;;;26.22;63.98;101065.72;5057606;28;20438;-87
2022/08/31 07:57:03;;;;;;;18.77;8.60;;;;;;;26.30;64.49;101071.91;5056888;28;20051;-86
2022/08/31 07:59:32;;;;;;;17.98;8.27;;;;;;;26.26;64.53;101083.53;5057870;28;20029;-85
2022/08/31 08:02:04;;;;;;;19.30;8.10;;;;;;;26.29;64.40;101079.94;5057217;28;20129;-87
2022/08/31 08:04:31;;;;;;;22.88;8.55;;;;;;;26.37;64.46;101086.16;5038702;28;20032;-85
2022/08/31 08:07:04;;;;;;;19.92;8.52;;;;;;;26.11;64.89;101057.75;5055216;28;20032;-86
2022/08/31 08:09:33;;;;;;;23.05;8.23;;;;;;;26.39;64.56;101089.72;5036169;28;20527;-85
2022/08/31 08:12:05;;;;;;;23.38;8.00;;;;;;;26.40;64.12;101102.22;5054157;28;20115;-85
2022/08/31 08:14:36;;;;;;;18.60;7.90;;;;;;;26.36;64.19;101077.25;5035799;28;20032;-86
2022/08/31 08:17:04;;;;;;;16.38;8.02;;;;;;;26.38;64.08;101070.09;5060895;28;20032;-84
2022/08/31 08:19:32;;;;;;;16.40;7.15;;;;;;;26.31;64.08;101060.31;5038054;28;20116;-84
2022/08/31 08:21:59;;;;;;;20.92;8.10;;;;;;;26.43;64.33;101094.16;5054649;28;20028;-85
2022/08/31 08:24:25;;;;;;;17.25;7.55;;;;;;;26.40;64.23;101097.75;5068885;28;20490;-83
2022/08/31 08:26:51;;;;;;;;;;;;;;;26.45;64.35;101102.19;5069883;28;20033;-83
2022/08/31 08:29:18;;;;;;;16.63;7.47;;;;;;;26.39;64.70;101096.00;5047496;28;19918;-83
2022/08/31 08:31:53;;;;;;;15.13;7.90;;;;;;;26.27;64.52;101073.72;5037463;28;20362;-84
2022/08/31 08:34:23;;;;;;;16.92;7.60;;;;;;;26.28;64.65;101070.16;5052145;28;20021;-86
2022/08/31 08:36:48;;;;;;;16.35;7.18;;;;;;;26.16;64.54;101037.22;5034048;28;20504;-85
2022/08/31 08:39:14;;;;;;;;;;;;;;;26.46;64.52;101079.84;5043157;28;20025;-83
2022/08/31 08:41:42;;;;;;;13.35;7.20;;;;;;;26.29;64.50;101053.19;5072265;28;19909;-85
2022/08/31 08:44:10;;;;;;;15.50;7.82;;;;;;;26.37;64.16;101067.41;5037253;28;20032;-86
2022/08/31 08:46:56;;;;;;;14.60;7.18;;;;;;;26.25;64.73;101054.13;5036170;28;20122;-85
2022/08/31 08:49:34;;;;;;;14.88;7.30;;;;;;;26.45;64.33;101092.34;5050597;28;20083;-87
2022/08/31 08:52:12;;;;;;;14.30;6.93;;;;;;;26.35;64.64;101069.22;5036367;28;20029;-85
2022/08/31 08:54:40;;;;;;;13.95;7.22;;;;;;;26.19;64.69;101042.53;5043750;28;20027;-84
2022/08/31 08:57:28;;;;;;;13.57;6.88;;;;;;;26.39;64.31;101066.53;5053091;28;20038;-84
2022/08/31 09:00:00;;;;;;;16.42;7.00;;;;;;;26.48;64.32;101078.97;5035626;28;20020;-85
2022/08/31 09:02:48;;;;;;;11.88;6.97;;;;;;;26.46;64.43;101078.09;5052985;28;20470;-86
2022/08/31 09:05:45;;;;;;;15.10;7.10;;;;;;;26.49;64.64;101082.53;5036980;28;20103;-86
2022/08/31 09:08:15;;;;;;;;;;;;;;;26.47;64.48;101079.84;5057998;28;20062;-86
2022/08/31 09:10:44;;;;;;;19.55;7.63;;;;;;;26.36;64.29;101053.13;5075282;28;19948;-85
2022/08/31 09:13:31;;;;;;;15.60;7.00;;;;;;;26.22;64.52;101024.69;5055672;28;20165;-83
2022/08/31 09:16:13;;;;;;;12.70;6.80;;;;;;;26.47;64.60;101068.25;5060886;28;20024;-87
2022/08/31 09:19:10;;;;;;;15.10;7.25;;;;;;;26.47;64.35;101060.22;5040815;28;20025;-86
2022/08/31 09:21:57;;;;;;;14.45;7.18;;;;;;;26.47;64.51;101063.78;5040172;28;20039;-85
2022/08/31 09:24:28;;;;;;;18.35;7.00;;;;;;;26.22;64.37;101025.56;5057624;28;20035;-84
2022/08/31 09:27:18;;;;;;;10.40;7.10;;;;;;;26.39;64.28;101050.47;5043532;28;20028;-85
2022/08/31 09:29:55;;;;;;;13.00;6.70;;;;;;;26.47;64.34;101060.22;5043744;28;20548;-84
2022/08/31 09:32:24;;;;;;;12.43;6.32;;;;;;;26.50;63.94;101074.50;5069817;28;20041;-85
2022/08/31 09:35:00;;;;;;;12.73;6.70;;;;;;;26.43;64.52;101067.38;5054426;28;20021;-85
2022/08/31 09:38:11;;;;;;;12.32;6.75;;;;;;;26.50;64.17;101068.22;5048254;28;20017;-85
2022/08/31 09:40:41;;;;;;;11.98;6.68;;;;;;;25.96;64.08;100978.44;5050494;28;20036;-86
2022/08/31 09:43:33;;;;;;;12.43;6.85;;;;;;;26.43;63.93;101059.34;5026787;28;20020;-85
2022/08/31 09:46:23;;;;;;;14.80;6.70;;;;;;;26.31;64.26;101040.66;5034504;28;20039;-86
2022/08/31 09:48:55;;;;;;;15.05;6.82;;;;;;;26.17;64.04;101017.56;5028883;28;20057;-85
2022/08/31 09:51:29;;;;;;;13.10;6.53;;;;;;;26.49;64.30;101069.13;5034463;28;20016;-85
2022/08/31 09:56:59;;;;;;;12.15;6.30;;;;;;;26.55;64.27;101053.91;5045264;28;20031;-86
2022/08/31 09:59:38;;;;;;;12.52;6.75;;;;;;;26.46;64.07;101035.22;5069805;28;20577;-86
2022/08/31 10:02:36;;;;;;;12.02;6.45;;;;;;;26.36;64.01;101010.31;5042611;28;20033;-85
2022/08/31 10:05:30;;;;;;;12.10;6.32;;;;;;;26.13;64.11;100956.03;5034975;28;20068;-84
2022/08/31 10:08:06;;;;;;;11.75;6.57;;;;;;;26.32;63.79;100986.25;5035763;28;20020;-85
2022/08/31 10:10:35;;;;;;;13.05;6.30;;;;;;;26.59;63.51;101020.00;5052116;28;20028;-84
2022/08/31 10:13:12;;;;;;;10.43;6.43;;;;;;;26.27;64.08;100970.22;5051885;28;20047;-85
2022/08/31 10:15:52;;;;;;;8.82;6.15;;;;;;;26.57;63.77;101024.47;5049825;28;20094;-85
2022/08/31 10:18:20;;;;;;;14.82;6.72;;;;;;;26.52;64.29;101019.13;5042499;28;20103;-84
2022/08/31 10:20:50;;;;;;;9.48;6.32;;;;;;;26.57;64.24;101019.13;5074726;28;20095;-84
2022/08/31 10:23:37;;;;;;;12.60;6.70;;;;;;;26.51;64.38;101011.97;5040002;28;20032;-84
2022/08/31 10:26:10;;;;;;;11.10;6.13;;;;;;;26.48;63.99;101005.75;5074107;28;20024;-84
2022/08/31 10:28:39;;;;;;;12.45;6.47;;;;;;;26.51;64.26;101003.94;5048449;28;20021;-85
2022/08/31 10:31:18;;;;;;;13.48;6.63;;;;;;;26.65;63.92;101025.31;5058573;28;20078;-86
2022/08/31 10:36:39;;;;;;;10.70;6.25;;;;;;;26.64;64.14;101019.94;5057822;28;20035;-84
2022/08/31 10:39:16;;;;;;;10.65;6.43;;;;;;;26.60;64.05;101001.19;5074862;28;20488;-84
2022/08/31 10:41:47;;;;;;;16.17;6.38;;;;;;;26.58;64.44;100994.97;5040467;28;20028;-85
2022/08/31 10:44:31;;;;;;;11.80;6.63;;;;;;;26.57;64.88;100998.56;5056026;28;20044;-84
2022/08/31 10:47:01;;;;;;;11.00;6.60;;;;;;;26.55;64.91;100996.78;5050431;28;20493;-84
2022/08/31 10:49:27;;;;;;;15.02;6.50;;;;;;;26.57;64.76;100995.88;5057335;28;20070;-84
2022/08/31 10:52:17;;;;;;;9.18;6.05;;;;;;;26.58;64.67;100997.66;5065314;28;20131;-84
2022/08/31 10:55:20;;;;;;;10.65;6.47;;;;;;;26.64;64.85;101020.81;5051785;28;20519;-84
2022/08/31 10:57:55;;;;;;;11.27;6.13;;;;;;;26.66;64.99;101016.34;5069614;28;20020;-84
2022/08/31 11:00:44;;;;;;;10.80;6.18;;;;;;;26.60;64.75;101005.69;5058047;28;20027;-84
2022/08/31 11:03:25;;;;;;;12.55;6.80;;;;;;;26.69;64.30;101013.66;5029073;28;20023;-86
2022/08/31 11:06:19;;;;;;;11.13;6.47;;;;;;;26.70;64.93;101015.41;5073910;28;20119;-83
2022/08/31 11:09:05;;;;;;;11.82;6.80;;;;;;;26.67;64.54;101010.09;5051906;28;20020;-85
2022/08/31 11:11:42;;;;;;;11.95;6.47;;;;;;;26.37;64.76;100963.91;5073038;28;20493;-84
2022/08/31 11:14:26;;;;;;;13.35;6.60;;;;;;;26.66;65.13;101016.34;5053813;28;20523;-84
2022/08/31 11:17:20;;;;;;;12.68;6.88;;;;;;;26.66;65.14;101026.19;5048177;28;20051;-82
2022/08/31 11:19:49;;;;;;;11.35;6.88;;;;;;;26.69;64.79;101018.09;5033340;28;20035;-85
2022/08/31 11:22:48;;;;;;;13.40;7.00;;;;;;;26.67;64.88;101011.88;5072618;28;20054;-85
2022/08/31 11:25:51;;;;;;;11.02;6.38;;;;;;;26.71;65.08;101005.59;5051595;28;20599;-85
2022/08/31 11:28:33;;;;;;;15.80;6.82;;;;;;;26.71;65.09;101003.81;5055498;28;20029;-87
2022/08/31 11:31:01;;;;;;;12.13;6.70;;;;;;;26.64;65.37;100991.34;5036300;28;20029;-84
2022/08/31 11:33:28;;;;;;;14.10;6.70;;;;;;;26.71;64.74;100997.53;5049518;28;20040;-85
2022/08/31 11:36:11;;;;;;;11.95;6.25;;;;;;;26.71;65.06;101001.13;5049665;28;20496;-84
2022/08/31 11:38:48;;;;;;;14.20;6.43;;;;;;;26.72;65.56;100997.53;5061285;28;20066;-86
2022/08/31 11:41:45;;;;;;;11.40;6.15;;;;;;;26.80;64.89;100989.44;5070607;28;20548;-85
2022/08/31 11:44:32;;;;;;;10.40;6.47;;;;;;;26.77;65.33;100995.69;5070519;28;20488;-86
2022/08/31 11:47:03;;;;;;;9.98;6.50;;;;;;;26.75;65.07;100989.47;5026880;28;20032;-86
2022/08/31 11:49:48;;;;;;;11.65;6.85;;;;;;;26.78;64.61;100993.94;5073479;28;20440;-86
2022/08/31 11:52:20;;;;;;;11.05;6.75;;;;;;;26.80;64.89;100987.66;5073448;28;20028;-84